Terminal Aerodrome Forecast
Issued by NWS

Home | Current Version | Previous Version | Text Only | Print | Product List | Glossary On
Versions: 1 2 3 4 5 6 7 8 9 10 11 12
664
FTUS42 TJSJ 241138
TAFNCM
TAF
TNCM 241138Z 2412/2512 11008KT P6SM FEW020 BKN250
     FM241400 09006KT P6SM SCT020 SCT050 BKN250
     FM242300 11007KT P6SM VCSH SCT020 SCT050 BKN250
      AMD NOT SKED=

USA.gov is the U.S. government's official web portal to all federal, state and local government web resources and services.